Time;durP1;ratioP1;P1;durP2;ratioP2;P2;SDS_P1;SDS_P2;PMS_P1;PMS_P2;Temp;Humidity;BMP_temperature;BMP_pressure;BME280_temperature;BME280_humidity;BME280_pressure;Samples;Min_cycle;Max_cycle;Signal;HPM_P1;HPM_P2
2022/11/17 00:01:56;;;;;;;3.40;2.73;;;7.70;98.00;;;;;;5030871;28;20460;-65
2022/11/17 00:04:25;;;;;;;9.17;3.17;;;7.60;98.00;;;;;;5030753;28;20874;-65
2022/11/17 00:06:52;;;;;;;4.43;2.40;;;7.50;98.00;;;;;;5030659;28;20984;-65
2022/11/17 00:09:19;;;;;;;3.30;2.47;;;7.60;98.00;;;;;;5033660;28;20856;-65
2022/11/17 00:14:35;;;;;;;4.00;2.47;;;7.60;98.00;;;;;;5019212;28;20988;-65
2022/11/17 00:17:04;;;;;;;8.87;2.90;;;7.60;98.00;;;;;;5034161;28;20460;-65
2022/11/17 00:22:17;;;;;;;4.97;2.70;;;7.70;98.00;;;;;;5034465;28;20467;-65
2022/11/17 00:24:44;;;;;;;5.00;2.90;;;7.70;98.00;;;;;;5034084;28;20462;-65
2022/11/17 00:27:11;;;;;;;6.60;2.67;;;7.90;98.00;;;;;;5034328;28;20515;-65
2022/11/17 00:29:38;;;;;;;6.80;2.87;;;8.00;98.00;;;;;;5034176;28;20500;-65
2022/11/17 00:34:52;;;;;;;5.00;3.30;;;7.80;98.00;;;;;;5033967;28;20581;-65
2022/11/17 00:37:19;;;;;;;4.17;2.20;;;7.80;98.00;;;;;;5033844;28;20465;-65
2022/11/17 00:39:46;;;;;;;5.33;3.07;;;7.70;98.00;;;;;;5033717;28;20477;-65
2022/11/17 00:42:13;;;;;;;3.13;2.17;;;7.50;98.00;;;;;;5033961;28;20461;-65
2022/11/17 00:44:40;;;;;;;4.80;2.53;;;7.40;98.00;;;;;;5033623;28;20470;-66
2022/11/17 00:47:07;;;;;;;4.37;2.90;;;7.50;98.00;;;;;;5033680;28;20461;-65
2022/11/17 00:49:35;;;;;;;5.20;2.50;;;7.50;98.00;;;;;;5016238;28;20494;-65
2022/11/17 00:52:04;;;;;;;3.40;2.40;;;7.70;98.00;;;;;;5033829;28;20450;-65
2022/11/17 00:54:31;;;;;;;3.93;2.30;;;7.60;98.00;;;;;;5033285;28;20464;-65
2022/11/17 00:56:58;;;;;;;4.80;2.50;;;7.60;98.00;;;;;;5033390;28;20542;-65
2022/11/17 00:59:25;;;;;;;3.57;2.90;;;7.50;98.00;;;;;;5033332;28;20697;-65
2022/11/17 01:01:52;;;;;;;4.93;2.77;;;7.40;98.00;;;;;;5033270;28;20464;-65
2022/11/17 01:04:19;;;;;;;2.60;1.97;;;7.50;98.00;;;;;;5033287;28;20964;-65
2022/11/17 01:06:48;;;;;;;4.37;2.20;;;7.60;98.00;;;;;;5033340;28;20464;-65
2022/11/17 01:09:18;;;;;;;3.30;2.37;;;7.70;98.00;;;;;;5033086;28;20491;-65
2022/11/17 01:11:46;;;;;;;5.57;3.33;;;7.60;98.00;;;;;;5033127;28;20457;-65
2022/11/17 01:14:16;;;;;;;3.13;2.50;;;7.70;98.00;;;;;;5033197;28;20469;-65
2022/11/17 01:16:43;;;;;;;3.73;3.00;;;7.70;98.00;;;;;;5033120;28;20470;-65
2022/11/17 01:19:11;;;;;;;3.53;2.63;;;7.80;98.00;;;;;;5032470;28;20596;-65
2022/11/17 01:21:38;;;;;;;3.87;2.50;;;7.80;98.00;;;;;;5032981;28;20458;-65
2022/11/17 01:24:11;;;;;;;5.97;2.90;;;7.80;98.00;;;;;;5033223;28;20952;-65
2022/11/17 01:26:40;;;;;;;3.40;2.30;;;7.90;98.00;;;;;;5032917;28;20462;-65
2022/11/17 01:29:09;;;;;;;3.30;2.37;;;7.90;98.00;;;;;;5032684;28;20559;-65
2022/11/17 01:31:39;;;;;;;5.80;3.30;;;7.90;98.00;;;;;;5032842;28;20497;-65
2022/11/17 01:34:07;;;;;;;3.00;1.97;;;7.90;98.00;;;;;;5032611;28;20465;-65
2022/11/17 01:37:17;;;;;;;5.03;2.83;;;8.00;98.00;;;;;;5032897;28;20540;-65
2022/11/17 01:39:25;;;;;;;2.40;2.00;;;8.10;98.00;;;;;;5032312;28;20511;-65
2022/11/17 01:41:54;;;;;;;4.00;2.33;;;8.30;98.00;;;;;;5032733;28;20544;-65
2022/11/17 01:44:55;;;;;;;2.73;1.93;;;8.20;98.00;;;;;;5032356;28;20469;-65
2022/11/17 01:47:27;;;;;;;3.63;2.17;;;8.20;98.00;;;;;;4979559;28;20473;-65
2022/11/17 01:49:58;;;;;;;2.80;2.10;;;8.20;98.00;;;;;;5014873;28;20494;-65
2022/11/17 01:52:26;;;;;;;2.53;2.30;;;8.10;98.00;;;;;;5032536;28;20983;-65
2022/11/17 01:54:55;;;;;;;2.67;2.10;;;8.10;98.00;;;;;;5032244;28;21008;-65
2022/11/17 01:57:27;;;;;;;2.90;1.90;;;8.00;98.00;;;;;;5032361;28;20465;-65
2022/11/17 01:59:58;;;;;;;5.00;2.30;;;8.00;98.00;;;;;;5032153;28;20461;-65
2022/11/17 02:02:25;;;;;;;4.23;2.50;;;8.00;98.00;;;;;;5032485;28;20469;-65
2022/11/17 02:05:00;;;;;;;3.80;2.73;;;8.00;98.00;;;;;;5014738;28;20460;-65
2022/11/17 02:07:31;;;;;;;3.53;2.20;;;8.10;98.00;;;;;;5032317;28;20955;-65
2022/11/17 02:09:59;;;;;;;3.77;2.43;;;8.10;98.00;;;;;;5031938;28;20485;-65
2022/11/17 02:12:30;;;;;;;4.53;2.37;;;8.20;98.00;;;;;;5032087;28;20865;-65
2022/11/17 02:15:00;;;;;;;1.93;1.90;;;8.10;98.00;;;;;;5032316;28;20523;-66
2022/11/17 02:17:33;;;;;;;3.53;2.30;;;8.10;98.00;;;;;;5032485;28;20512;-65
2022/11/17 02:20:09;;;;;;;3.03;2.13;;;8.20;98.00;;;;;;5031973;28;20453;-65
2022/11/17 02:23:17;;;;;;;4.93;2.50;;;8.20;98.00;;;;;;5031910;28;20457;-65
2022/11/17 02:26:20;;;;;;;4.63;2.67;;;8.20;98.00;;;;;;5031824;28;20908;-65
2022/11/17 02:28:54;;;;;;;1.77;1.77;;;8.30;98.00;;;;;;5031679;28;20859;-65
2022/11/17 02:31:28;;;;;;;2.93;1.90;;;8.40;98.00;;;;;;5031841;28;20822;-65
2022/11/17 02:34:00;;;;;;;19.23;1.90;;;8.60;98.00;;;;;;5014891;28;20976;-65
2022/11/17 02:36:34;;;;;;;3.70;2.10;;;8.70;98.00;;;;;;5031683;28;20864;-65
2022/11/17 02:39:10;;;;;;;2.20;1.53;;;8.90;98.00;;;;;;5031560;28;20475;-65
2022/11/17 02:41:46;;;;;;;2.90;1.60;;;8.90;98.00;;;;;;5031569;28;20548;-65
2022/11/17 02:44:20;;;;;;;3.10;1.77;;;9.00;98.00;;;;;;5031578;28;20504;-65
2022/11/17 02:46:51;;;;;;;2.33;1.93;;;9.10;98.00;;;;;;5031503;28;20475;-65
2022/11/17 02:49:21;;;;;;;3.67;1.93;;;9.10;98.00;;;;;;5031451;28;20912;-65
2022/11/17 02:51:51;;;;;;;2.20;1.80;;;9.20;98.00;;;;;;5031336;28;20479;-65
2022/11/17 02:54:19;;;;;;;2.87;1.97;;;9.20;98.00;;;;;;5031658;28;20462;-65
2022/11/17 02:56:46;;;;;;;3.00;1.70;;;9.20;98.00;;;;;;5031325;28;20515;-65
2022/11/17 02:59:18;;;;;;;5.63;1.60;;;9.20;98.00;;;;;;5031309;28;20488;-65
2022/11/17 03:02:11;;;;;;;2.03;1.70;;;9.20;98.00;;;;;;5031240;28;20453;-66
2022/11/17 03:04:46;;;;;;;2.10;1.80;;;9.10;98.00;;;;;;5031145;28;20466;-65
2022/11/17 03:07:30;;;;;;;2.07;1.47;;;9.20;98.00;;;;;;5031778;28;20468;-65
2022/11/17 03:10:04;;;;;;;2.80;1.93;;;9.00;98.00;;;;;;5031613;28;20490;-65
2022/11/17 03:12:41;;;;;;;2.50;1.93;;;8.80;98.00;;;;;;5031449;28;20462;-65
2022/11/17 03:15:19;;;;;;;2.30;1.90;;;8.90;98.00;;;;;;5031164;28;20466;-65
2022/11/17 03:17:52;;;;;;;3.27;1.67;;;8.90;98.00;;;;;;5031400;28;20786;-65
2022/11/17 03:20:22;;;;;;;4.30;2.60;;;8.90;98.00;;;;;;5031296;28;20829;-65
2022/11/17 03:22:54;;;;;;;2.60;1.90;;;8.60;98.00;;;;;;5031168;28;20890;-65
2022/11/17 03:25:23;;;;;;;2.40;1.90;;;8.60;98.00;;;;;;5030831;28;20512;-65
2022/11/17 03:27:57;;;;;;;2.27;1.70;;;8.50;98.00;;;;;;5031160;28;20464;-65
2022/11/17 03:30:32;;;;;;;3.30;2.07;;;8.50;98.00;;;;;;5031120;28;20486;-65
2022/11/17 03:33:04;;;;;;;3.57;2.23;;;8.50;98.00;;;;;;5031099;28;20453;-65
2022/11/17 03:35:35;;;;;;;1.73;1.63;;;8.40;98.00;;;;;;5030850;28;20490;-65
2022/11/17 03:38:10;;;;;;;1.53;1.43;;;8.40;98.00;;;;;;5009734;28;20545;-65
2022/11/17 03:40:42;;;;;;;2.03;1.77;;;8.30;98.00;;;;;;5011112;28;20463;-65
2022/11/17 03:43:12;;;;;;;2.20;1.70;;;8.30;98.00;;;;;;5011944;28;20466;-65
2022/11/17 03:45:44;;;;;;;2.67;1.80;;;8.50;98.00;;;;;;5014988;28;20458;-65
2022/11/17 03:48:16;;;;;;;1.50;1.40;;;8.50;98.00;;;;;;5014858;28;20457;-65
2022/11/17 03:50:47;;;;;;;2.30;1.87;;;8.50;98.00;;;;;;5014924;28;20490;-65
2022/11/17 03:53:16;;;;;;;2.17;1.83;;;8.60;98.00;;;;;;5014985;28;20467;-65
2022/11/17 03:55:50;;;;;;;2.70;1.97;;;8.60;98.00;;;;;;5014970;28;20470;-65
2022/11/17 03:58:19;;;;;;;1.80;1.70;;;8.50;98.00;;;;;;5015042;28;20471;-65
2022/11/17 04:00:51;;;;;;;2.40;1.50;;;8.50;98.00;;;;;;5014765;28;20455;-65
2022/11/17 04:03:22;;;;;;;2.27;1.57;;;8.60;98.00;;;;;;5015042;28;20875;-65
2022/11/17 04:05:49;;;;;;;3.00;1.83;;;8.70;98.00;;;;;;5014713;28;20458;-65
2022/11/17 04:08:18;;;;;;;3.30;1.57;;;8.80;98.00;;;;;;5014929;28;20570;-65
2022/11/17 04:16:15;;;;;;;1.83;1.53;;;8.80;98.00;;;;;;5013633;28;20466;-65
2022/11/17 04:18:44;;;;;;;2.53;1.67;;;8.90;98.00;;;;;;5014325;28;20455;-65
2022/11/17 04:21:11;;;;;;;1.83;1.47;;;8.80;98.00;;;;;;5013519;28;20459;-65
2022/11/17 04:23:38;;;;;;;1.43;1.30;;;8.80;98.00;;;;;;5014256;28;20993;-65
2022/11/17 04:28:50;;;;;;;1.83;1.50;;;8.90;98.00;;;;;;5014395;28;20445;-65
2022/11/17 04:31:21;;;;;;;1.10;1.00;;;9.00;98.00;;;;;;5014189;28;20490;-65
2022/11/17 04:33:50;;;;;;;1.30;1.20;;;9.10;98.00;;;;;;5014016;28;20505;-65
2022/11/17 04:36:19;;;;;;;1.70;1.30;;;9.20;98.00;;;;;;5014348;28;20459;-65
2022/11/17 04:38:48;;;;;;;1.40;1.20;;;9.20;98.00;;;;;;5023731;28;20549;-65
2022/11/17 04:44:01;;;;;;;2.27;1.40;;;9.40;98.00;;;;;;5034130;28;20436;-65
2022/11/17 04:46:31;;;;;;;1.30;1.17;;;9.50;98.00;;;;;;5033726;28;20666;-66
2022/11/17 04:48:59;;;;;;;1.20;1.20;;;9.50;98.00;;;;;;5034118;28;20460;-65
2022/11/17 04:51:27;;;;;;;2.40;1.17;;;9.60;98.00;;;;;;5034808;28;21046;-66
2022/11/17 04:53:54;;;;;;;1.30;1.10;;;9.60;98.00;;;;;;5033480;28;20454;-66
2022/11/17 04:56:22;;;;;;;1.20;1.00;;;9.60;98.00;;;;;;5034446;28;20450;-66
2022/11/17 04:58:50;;;;;;;1.93;1.37;;;9.60;98.00;;;;;;5034337;28;20853;-66
2022/11/17 05:01:18;;;;;;;2.30;1.30;;;9.60;98.00;;;;;;5033570;28;20458;-65
2022/11/17 05:03:49;;;;;;;2.33;1.40;;;9.60;98.00;;;;;;5033500;28;20943;-66
2022/11/17 05:06:18;;;;;;;1.77;1.37;;;9.60;98.00;;;;;;5016262;28;20474;-65
2022/11/17 05:08:45;;;;;;;2.03;1.53;;;9.60;98.00;;;;;;5033336;28;21003;-65
2022/11/17 05:13:58;;;;;;;3.50;1.20;;;9.60;98.00;;;;;;5033401;28;20455;-65
2022/11/17 05:19:15;;;;;;;1.57;1.47;;;9.60;98.00;;;;;;5033246;28;20501;-66
2022/11/17 05:21:43;;;;;;;1.90;1.50;;;9.70;98.00;;;;;;5033229;28;20464;-66
2022/11/17 05:24:09;;;;;;;2.47;1.63;;;9.80;98.00;;;;;;5015736;28;20462;-66
2022/11/17 05:26:40;;;;;;;1.30;1.17;;;9.80;98.00;;;;;;5033056;28;20472;-65
2022/11/17 05:29:08;;;;;;;1.53;1.23;;;9.70;98.00;;;;;;5033109;28;20764;-66
2022/11/17 05:31:35;;;;;;;1.40;1.20;;;9.60;98.00;;;;;;5033216;28;20495;-65
2022/11/17 05:34:04;;;;;;;1.40;1.30;;;9.60;98.00;;;;;;5032958;28;21014;-65
2022/11/17 05:36:33;;;;;;;1.83;1.20;;;9.50;98.00;;;;;;5032795;28;20459;-65
2022/11/17 05:39:01;;;;;;;1.90;1.30;;;9.40;98.00;;;;;;5032632;28;20470;-65
2022/11/17 05:41:28;;;;;;;1.37;1.33;;;9.50;98.00;;;;;;5032681;28;20465;-65
2022/11/17 05:43:56;;;;;;;1.60;1.23;;;9.60;98.00;;;;;;5032637;28;20922;-65
2022/11/17 05:46:25;;;;;;;1.20;1.10;;;9.70;98.00;;;;;;5032762;28;20501;-66
2022/11/17 05:48:52;;;;;;;1.70;1.40;;;9.70;98.00;;;;;;5032765;28;20469;-65
2022/11/17 05:51:21;;;;;;;2.17;1.50;;;9.60;98.00;;;;;;5032989;28;20485;-65
2022/11/17 05:53:50;;;;;;;1.30;1.17;;;9.50;98.00;;;;;;5032525;28;20459;-65
2022/11/17 05:56:33;;;;;;;1.97;1.27;;;9.70;98.00;;;;;;5032814;28;20454;-65
2022/11/17 05:59:11;;;;;;;1.30;1.20;;;9.70;98.00;;;;;;5032319;28;20508;-65
2022/11/17 06:01:41;;;;;;;1.83;1.33;;;9.70;98.00;;;;;;5032312;28;20454;-65
2022/11/17 06:04:09;;;;;;;1.43;1.13;;;9.60;98.00;;;;;;5032336;28;20844;-65
2022/11/17 06:06:38;;;;;;;1.20;1.20;;;9.60;98.00;;;;;;5031998;28;20467;-65
2022/11/17 06:09:06;;;;;;;1.50;1.17;;;9.60;98.00;;;;;;5032117;28;20458;-66
2022/11/17 06:11:34;;;;;;;1.20;1.20;;;9.50;98.00;;;;;;5032067;28;20487;-66
2022/11/17 06:14:01;;;;;;;1.63;1.57;;;9.40;98.00;;;;;;5031961;28;20460;-66
2022/11/17 06:16:31;;;;;;;1.40;1.10;;;9.40;98.00;;;;;;5032221;28;20510;-65
2022/11/17 06:19:04;;;;;;;1.50;1.40;;;9.40;98.00;;;;;;5031848;28;20458;-65
2022/11/17 06:21:31;;;;;;;1.70;1.50;;;9.40;98.00;;;;;;5032143;28;20451;-66
2022/11/17 06:24:00;;;;;;;1.40;1.20;;;9.50;98.00;;;;;;5031586;28;20890;-65
2022/11/17 06:26:28;;;;;;;1.60;1.20;;;9.50;98.00;;;;;;5031972;28;20533;-65
2022/11/17 06:28:56;;;;;;;1.87;1.50;;;9.50;98.00;;;;;;5031832;28;20525;-66
2022/11/17 06:31:27;;;;;;;1.73;1.47;;;9.50;98.00;;;;;;5031805;28;20515;-65
2022/11/17 06:33:58;;;;;;;1.47;1.40;;;9.40;98.00;;;;;;5014541;28;20459;-65
2022/11/17 06:36:25;;;;;;;1.40;1.40;;;9.40;98.00;;;;;;5031693;28;20455;-65
2022/11/17 06:38:52;;;;;;;2.00;1.40;;;9.50;98.00;;;;;;5031593;28;20613;-65
2022/11/17 06:41:19;;;;;;;3.27;1.77;;;9.40;98.00;;;;;;5014469;28;20451;-65
2022/11/17 06:43:47;;;;;;;1.30;1.10;;;9.50;98.00;;;;;;5031883;28;20859;-65
2022/11/17 06:46:15;;;;;;;1.93;1.27;;;9.50;98.00;;;;;;5031773;28;20824;-65
2022/11/17 06:48:42;;;;;;;1.60;1.23;;;9.50;98.00;;;;;;5031540;28;20489;-66
2022/11/17 06:51:10;;;;;;;1.83;1.40;;;9.50;98.00;;;;;;5031389;28;20492;-65
2022/11/17 06:53:38;;;;;;;1.20;1.17;;;9.60;98.00;;;;;;5031478;28;20454;-65
2022/11/17 06:56:07;;;;;;;1.67;1.40;;;9.60;98.00;;;;;;5013757;28;20465;-65
2022/11/17 06:58:36;;;;;;;1.63;1.33;;;9.70;98.00;;;;;;5031480;28;20964;-65
2022/11/17 07:01:06;;;;;;;1.60;1.20;;;9.70;98.00;;;;;;5031135;28;20641;-65
2022/11/17 07:03:34;;;;;;;1.30;1.30;;;9.70;98.00;;;;;;5031669;28;20455;-66
2022/11/17 07:06:02;;;;;;;1.30;1.30;;;9.80;98.00;;;;;;5013698;28;20493;-65
2022/11/17 07:08:29;;;;;;;1.80;1.47;;;9.90;98.00;;;;;;5031221;28;20458;-66
2022/11/17 07:11:02;;;;;;;3.13;1.50;;;9.80;98.00;;;;;;5031083;28;20485;-66
2022/11/17 07:13:29;;;;;;;1.93;1.40;;;9.80;98.00;;;;;;5031214;28;20458;-65
2022/11/17 07:16:04;;;;;;;3.33;1.70;;;9.70;98.00;;;;;;5013689;28;20553;-65
2022/11/17 07:18:31;;;;;;;2.50;1.60;;;9.70;98.00;;;;;;5030409;28;21040;-65
2022/11/17 07:21:03;;;;;;;2.47;1.60;;;9.60;98.00;;;;;;5031022;28;20451;-65
2022/11/17 07:23:30;;;;;;;2.70;1.87;;;9.80;98.00;;;;;;5031159;28;20547;-66
2022/11/17 07:25:57;;;;;;;2.00;1.90;;;9.80;98.00;;;;;;5013644;28;20799;-65
2022/11/17 07:28:24;;;;;;;2.10;1.60;;;9.80;98.00;;;;;;5030964;28;20458;-66
2022/11/17 07:30:53;;;;;;;1.40;1.30;;;9.80;98.00;;;;;;5030979;28;21007;-66
2022/11/17 07:33:23;;;;;;;6.30;1.60;;;10.00;98.00;;;;;;5031176;28;20455;-65
2022/11/17 07:35:54;;;;;;;1.73;1.67;;;10.00;98.00;;;;;;5031025;28;20463;-64
2022/11/17 07:38:22;;;;;;;1.73;1.43;;;10.00;98.00;;;;;;5030981;28;20471;-63
2022/11/17 07:40:49;;;;;;;3.80;2.37;;;10.00;98.00;;;;;;5030797;28;20462;-62
2022/11/17 07:43:16;;;;;;;1.70;1.47;;;10.10;98.00;;;;;;5031115;28;20458;-62
2022/11/17 07:45:43;;;;;;;2.37;1.40;;;10.20;98.00;;;;;;5030687;28;20493;-62
2022/11/17 07:48:11;;;;;;;1.97;1.63;;;10.20;98.00;;;;;;5030923;28;20462;-62
2022/11/17 07:50:40;;;;;;;1.90;1.63;;;10.10;98.00;;;;;;5030859;28;20489;-62
2022/11/17 07:53:07;;;;;;;2.50;1.47;;;10.20;98.00;;;;;;5030768;28;20447;-62
2022/11/17 07:55:34;;;;;;;1.70;1.40;;;10.20;98.00;;;;;;5030282;28;20510;-62
2022/11/17 07:58:02;;;;;;;2.30;1.60;;;10.30;98.00;;;;;;5030691;28;20458;-62
2022/11/17 08:00:32;;;;;;;3.20;1.70;;;10.40;98.00;;;;;;5013233;28;20450;-62
2022/11/17 08:03:02;;;;;;;2.40;1.80;;;10.30;98.00;;;;;;5030642;28;20459;-62
2022/11/17 08:05:30;;;;;;;5.90;2.83;;;10.40;98.00;;;;;;5030671;28;20458;-62
2022/11/17 08:08:00;;;;;;;6.73;1.53;;;10.30;98.00;;;;;;5030544;28;20465;-62
2022/11/17 08:10:30;;;;;;;2.77;1.47;;;10.30;98.00;;;;;;5030352;28;20544;-62
2022/11/17 08:12:58;;;;;;;1.40;1.30;;;10.30;98.00;;;;;;5030379;28;20512;-62
2022/11/17 08:15:28;;;;;;;1.50;1.20;;;10.30;98.00;;;;;;5030629;28;20872;-62
2022/11/17 08:17:56;;;;;;;1.60;1.30;;;10.30;98.00;;;;;;5013601;28;20511;-62
2022/11/17 08:20:25;;;;;;;1.70;1.33;;;10.40;98.00;;;;;;5030649;28;20453;-62
2022/11/17 08:22:53;;;;;;;2.93;1.67;;;10.50;98.00;;;;;;5030826;28;20464;-62
2022/11/17 08:25:23;;;;;;;1.20;1.10;;;10.50;98.00;;;;;;5030754;28;20458;-62
2022/11/17 08:27:51;;;;;;;1.73;1.13;;;10.50;98.00;;;;;;5030786;28;20504;-62
2022/11/17 08:30:19;;;;;;;1.30;1.20;;;10.60;98.00;;;;;;5015869;28;20462;-62
2022/11/17 08:32:51;;;;;;;1.20;1.13;;;10.70;98.00;;;;;;5034066;28;20469;-62
2022/11/17 08:35:18;;;;;;;1.60;1.20;;;10.90;98.00;;;;;;5033758;28;20459;-63
2022/11/17 08:37:46;;;;;;;2.33;1.03;;;11.00;98.00;;;;;;5033322;28;20468;-63
2022/11/17 08:40:14;;;;;;;2.73;1.23;;;11.10;98.00;;;;;;5013748;28;20455;-63
2022/11/17 08:42:43;;;;;;;1.70;1.20;;;11.20;98.00;;;;;;5031565;28;20453;-63
2022/11/17 08:45:11;;;;;;;1.30;1.03;;;11.30;98.00;;;;;;5041975;28;20963;-63
2022/11/17 08:47:39;;;;;;;1.43;1.33;;;11.40;98.00;;;;;;5032423;28;20878;-63
2022/11/17 08:50:08;;;;;;;1.23;1.03;;;11.50;98.00;;;;;;5015338;28;20464;-63
2022/11/17 08:52:35;;;;;;;1.40;1.07;;;11.60;98.00;;;;;;5030952;28;20501;-63
2022/11/17 08:55:04;;;;;;;1.30;0.90;;;11.60;98.00;;;;;;5032571;28;20484;-64
2022/11/17 08:57:32;;;;;;;1.40;1.10;;;11.60;98.00;;;;;;5047677;28;20496;-63
2022/11/17 09:00:01;;;;;;;1.20;1.00;;;11.70;98.00;;;;;;5032905;28;20542;-63
2022/11/17 09:02:28;;;;;;;1.30;1.20;;;11.70;98.00;;;;;;5050539;28;20464;-63
2022/11/17 09:04:55;;;;;;;1.20;1.00;;;11.80;98.00;;;;;;5039245;28;20465;-64
2022/11/17 09:07:22;;;;;;;1.87;1.20;;;11.80;98.00;;;;;;5032942;28;20465;-64
2022/11/17 09:09:50;;;;;;;1.37;1.00;;;11.80;98.00;;;;;;5039246;28;20457;-62
2022/11/17 09:12:17;;;;;;;1.20;1.10;;;11.80;98.00;;;;;;5031277;28;20499;-64
2022/11/17 09:14:44;;;;;;;4.43;1.30;;;11.90;98.00;;;;;;5030755;28;21013;-64
2022/11/17 09:17:12;;;;;;;1.90;1.10;;;11.90;98.00;;;;;;5031643;28;20458;-62
2022/11/17 09:19:39;;;;;;;1.40;1.40;;;12.00;98.00;;;;;;5050134;28;20459;-64
2022/11/17 09:22:06;;;;;;;3.83;1.10;;;12.40;98.00;;;;;;5041872;28;21022;-63
2022/11/17 09:24:34;;;;;;;1.47;1.23;;;12.40;98.00;;;;;;5049503;28;20953;-65
2022/11/17 09:27:02;;;;;;;1.20;1.00;;;12.50;98.00;;;;;;5023796;28;20453;-64
2022/11/17 09:29:29;;;;;;;1.20;1.03;;;12.50;98.00;;;;;;5040175;28;20465;-64
2022/11/17 09:31:57;;;;;;;1.20;1.00;;;12.50;98.00;;;;;;5049610;28;20498;-65
2022/11/17 09:34:28;;;;;;;1.67;1.10;;;12.60;98.00;;;;;;5030919;28;20495;-63
2022/11/17 09:36:56;;;;;;;1.20;1.00;;;12.60;98.00;;;;;;5039765;28;20464;-64
2022/11/17 09:39:23;;;;;;;1.20;1.00;;;12.60;98.00;;;;;;5041383;28;20831;-62
2022/11/17 09:41:52;;;;;;;1.53;1.13;;;12.60;98.00;;;;;;5039640;28;20458;-64
2022/11/17 09:44:29;;;;;;;1.63;1.13;;;12.70;98.00;;;;;;5039619;28;20470;-64
2022/11/17 09:47:10;;;;;;;1.77;1.17;;;12.60;98.00;;;;;;5023447;28;20474;-63
2022/11/17 09:49:49;;;;;;;1.20;1.00;;;12.70;98.00;;;;;;5043834;28;20465;-63
2022/11/17 09:52:21;;;;;;;1.20;1.00;;;12.70;98.00;;;;;;5052383;28;20525;-62
2022/11/17 09:54:53;;;;;;;1.30;1.10;;;12.70;98.00;;;;;;5052050;28;20951;-62
2022/11/17 09:57:30;;;;;;;1.30;1.00;;;12.80;98.00;;;;;;5052455;28;20458;-62
2022/11/17 10:00:05;;;;;;;1.20;1.00;;;12.80;98.00;;;;;;5052234;28;20461;-62
2022/11/17 10:02:32;;;;;;;1.60;1.10;;;12.80;98.00;;;;;;5052404;28;21013;-63
2022/11/17 10:05:01;;;;;;;2.17;1.10;;;12.80;98.00;;;;;;5052160;28;20554;-62
2022/11/17 10:07:33;;;;;;;1.30;1.10;;;12.80;98.00;;;;;;5052505;28;20472;-62
2022/11/17 10:10:02;;;;;;;1.50;1.10;;;12.80;98.00;;;;;;5052366;28;20460;-62
2022/11/17 10:12:35;;;;;;;2.90;1.33;;;12.80;98.00;;;;;;5052393;28;20489;-63
2022/11/17 10:15:21;;;;;;;1.37;1.00;;;12.80;98.00;;;;;;5052329;28;20865;-62
2022/11/17 10:17:48;;;;;;;1.20;1.10;;;12.80;98.00;;;;;;5052228;28;20491;-62
2022/11/17 10:20:18;;;;;;;1.83;1.67;;;12.80;98.00;;;;;;5052025;28;20952;-62
2022/11/17 10:22:46;;;;;;;1.40;1.10;;;12.90;98.00;;;;;;5051943;28;20892;-62
2022/11/17 10:25:35;;;;;;;1.30;1.10;;;12.90;98.00;;;;;;5051824;28;20871;-62
2022/11/17 10:28:03;;;;;;;1.27;1.00;;;12.80;98.00;;;;;;5051720;28;20583;-63
2022/11/17 10:30:31;;;;;;;1.53;0.97;;;12.90;98.00;;;;;;5034369;28;20830;-62
2022/11/17 10:32:59;;;;;;;1.73;1.10;;;13.00;98.00;;;;;;5033867;28;20523;-62
2022/11/17 10:35:30;;;;;;;3.33;1.40;;;13.10;98.00;;;;;;5051831;28;20953;-63
2022/11/17 10:37:59;;;;;;;1.30;1.10;;;13.10;98.00;;;;;;5051480;28;20541;-62
2022/11/17 10:40:29;;;;;;;1.37;1.03;;;13.10;98.00;;;;;;5051453;28;20459;-62
2022/11/17 10:43:05;;;;;;;1.20;1.00;;;13.30;98.00;;;;;;5034872;28;20464;-62
2022/11/17 10:45:33;;;;;;;1.20;1.10;;;13.40;98.00;;;;;;5034909;28;20514;-60
2022/11/17 10:48:26;;;;;;;1.40;1.20;;;13.50;98.00;;;;;;5052393;28;20902;-59
2022/11/17 10:50:57;;;;;;;1.20;1.00;;;13.90;98.00;;;;;;5051954;28;20467;-66
2022/11/17 10:53:35;;;;;;;5.67;1.10;;;14.20;98.00;;;;;;5050539;28;20469;-66
2022/11/17 10:56:06;;;;;;;2.03;1.20;;;14.00;98.00;;;;;;5051298;28;20481;-61
2022/11/17 10:58:57;;;;;;;1.20;0.90;;;13.80;98.00;;;;;;5051419;28;20593;-60
2022/11/17 11:01:29;;;;;;;2.33;1.60;;;13.80;98.00;;;;;;5051237;28;20460;-62
2022/11/17 11:03:56;;;;;;;1.47;1.00;;;13.70;98.00;;;;;;5051368;28;20554;-62
2022/11/17 11:06:26;;;;;;;2.47;1.10;;;13.70;98.00;;;;;;5051468;28;20829;-62
2022/11/17 11:08:57;;;;;;;2.10;1.20;;;13.70;98.00;;;;;;5033588;28;20540;-63
2022/11/17 11:11:44;;;;;;;1.73;1.30;;;13.60;98.00;;;;;;5051184;28;20518;-62
2022/11/17 11:14:22;;;;;;;2.73;1.10;;;13.50;98.00;;;;;;5050630;28;20467;-62
2022/11/17 11:16:50;;;;;;;1.20;1.00;;;13.50;98.00;;;;;;5051124;28;20948;-62
2022/11/17 11:19:21;;;;;;;1.20;0.90;;;13.60;98.00;;;;;;5051112;28;20459;-62
2022/11/17 11:22:23;;;;;;;3.43;1.10;;;13.90;98.00;;;;;;5051563;28;20462;-62
2022/11/17 11:24:58;;;;;;;1.30;1.00;;;14.20;98.00;;;;;;5034200;28;20456;-62
2022/11/17 11:27:42;;;;;;;1.20;1.00;;;14.40;98.00;;;;;;5051505;28;20454;-62
2022/11/17 11:30:12;;;;;;;1.57;1.10;;;14.50;98.00;;;;;;5051586;28;20567;-61
2022/11/17 11:32:51;;;;;;;2.07;1.20;;;14.70;98.00;;;;;;5034147;28;20988;-62
2022/11/17 11:35:55;;;;;;;3.33;1.10;;;14.90;98.00;;;;;;5051511;28;20464;-62
2022/11/17 11:38:38;;;;;;;1.20;1.10;;;15.10;98.00;;;;;;5050694;28;20463;-62
2022/11/17 11:41:16;;;;;;;1.30;1.00;;;15.10;98.00;;;;;;5034817;28;20499;-62
2022/11/17 11:43:56;;;;;;;1.40;1.13;;;14.90;98.00;;;;;;5051516;28;20464;-62
2022/11/17 11:46:34;;;;;;;8.63;1.30;;;14.80;98.00;;;;;;5051541;28;20451;-62
2022/11/17 11:51:34;;;;;;;1.20;1.10;;;14.80;98.00;;;;;;5087765;28;20999;-62
2022/11/17 11:54:09;;;;;;;2.80;1.43;;;14.80;98.00;;;;;;5090897;28;20463;-62
2022/11/17 11:56:39;;;;;;;1.30;1.10;;;14.70;98.00;;;;;;5090992;28;20873;-62
2022/11/17 11:59:13;;;;;;;1.30;1.10;;;14.80;98.00;;;;;;5091171;28;20516;-62
2022/11/17 12:01:48;;;;;;;4.27;1.00;;;14.90;98.00;;;;;;5090997;28;20454;-62
2022/11/17 12:04:26;;;;;;;2.17;1.00;;;15.00;98.00;;;;;;5092519;28;20513;-62
2022/11/17 12:06:59;;;;;;;1.20;1.10;;;14.80;98.00;;;;;;5094971;28;20463;-62
2022/11/17 12:09:49;;;;;;;3.20;1.20;;;14.50;98.00;;;;;;5094865;28;20885;-62
2022/11/17 12:12:19;;;;;;;2.17;1.27;;;14.20;98.00;;;;;;5094234;28;20480;-62
2022/11/17 12:15:08;;;;;;;1.20;1.00;;;14.00;98.00;;;;;;5094457;28;20855;-62
2022/11/17 12:17:36;;;;;;;1.70;1.20;;;13.90;98.00;;;;;;5056458;28;20454;-62
2022/11/17 12:20:05;;;;;;;1.77;1.30;;;14.10;98.00;;;;;;5094318;28;20692;-62
2022/11/17 12:23:09;;;;;;;2.80;1.33;;;14.60;98.00;;;;;;5094288;28;20762;-62
2022/11/17 12:25:46;;;;;;;3.30;1.10;;;15.30;98.00;;;;;;5094598;28;20499;-62
2022/11/17 12:28:28;;;;;;;2.53;1.10;;;15.50;98.00;;;;;;5076402;28;20453;-62
2022/11/17 12:30:57;;;;;;;3.80;1.67;;;15.70;98.00;;;;;;5094153;28;20458;-62
2022/11/17 12:33:52;;;;;;;1.20;1.00;;;15.60;98.00;;;;;;5076629;28;20615;-62
2022/11/17 12:36:30;;;;;;;1.93;1.20;;;15.80;98.00;;;;;;5094128;28;20464;-63
2022/11/17 12:38:58;;;;;;;2.90;1.10;;;16.00;98.00;;;;;;5094329;28;20462;-61
2022/11/17 12:42:03;;;;;;;2.60;1.17;;;15.80;98.00;;;;;;5094228;28;20457;-62
2022/11/17 12:44:58;;;;;;;3.50;1.67;;;15.60;98.00;;;;;;5093893;28;20462;-61
2022/11/17 12:47:29;;;;;;;3.93;1.20;;;15.40;98.00;;;;;;5093973;28;20828;-61
2022/11/17 12:50:12;;;;;;;4.30;1.40;;;15.20;98.00;;;;;;5075618;28;20527;-63
2022/11/17 12:52:52;;;;;;;3.53;1.47;;;15.00;98.00;;;;;;5093796;28;20489;-61
2022/11/17 12:55:27;;;;;;;2.47;1.03;;;14.90;98.00;;;;;;5093828;28;20457;-61
2022/11/17 12:58:04;;;;;;;1.50;1.10;;;15.10;98.00;;;;;;5076043;28;20458;-61
2022/11/17 13:00:38;;;;;;;1.63;1.20;;;15.30;98.00;;;;;;5093822;28;20510;-61
2022/11/17 13:03:09;;;;;;;3.33;1.53;;;15.30;98.00;;;;;;5093750;28;20802;-61
2022/11/17 13:05:37;;;;;;;1.20;1.10;;;15.20;98.00;;;;;;5093618;28;20485;-61
2022/11/17 13:08:18;;;;;;;2.43;1.40;;;15.40;98.00;;;;;;5093405;28;20466;-62
2022/11/17 13:10:45;;;;;;;1.20;1.10;;;15.70;98.00;;;;;;5093429;28;20450;-62
2022/11/17 13:13:16;;;;;;;1.47;1.20;;;15.70;98.00;;;;;;5093783;28;20490;-62
2022/11/17 13:15:48;;;;;;;11.60;1.37;;;15.40;98.00;;;;;;5092723;28;20513;-62
2022/11/17 13:18:23;;;;;;;2.17;1.13;;;15.30;98.00;;;;;;5093909;28;20450;-62
2022/11/17 13:20:50;;;;;;;1.30;1.00;;;15.20;98.00;;;;;;5093986;28;20944;-62
2022/11/17 13:23:21;;;;;;;1.80;1.10;;;15.20;98.00;;;;;;5076170;28;20928;-62
2022/11/17 13:25:49;;;;;;;1.47;1.10;;;15.20;98.00;;;;;;5093642;28;20573;-62
2022/11/17 13:28:30;;;;;;;2.27;1.40;;;15.30;98.00;;;;;;5093802;28;20451;-62
2022/11/17 13:30:59;;;;;;;1.60;1.20;;;15.30;98.00;;;;;;5093798;28;20523;-62
2022/11/17 13:33:28;;;;;;;1.40;1.10;;;15.30;98.00;;;;;;5093767;28;21147;-62
2022/11/17 13:36:06;;;;;;;1.30;1.20;;;15.20;98.00;;;;;;5093012;28;20458;-62
2022/11/17 13:38:33;;;;;;;2.60;1.57;;;15.10;98.00;;;;;;5093915;28;20454;-62
2022/11/17 13:41:02;;;;;;;1.50;1.20;;;15.00;98.00;;;;;;5093161;28;20459;-62
2022/11/17 13:43:37;;;;;;;1.57;1.37;;;15.10;98.00;;;;;;5093595;28;20526;-62